Time;durP1;ratioP1;P1;durP2;ratioP2;P2;SDS_P1;SDS_P2;PMS_P1;PMS_P2;Temp;Humidity;BMP_temperature;BMP_pressure;BME280_temperature;BME280_humidity;BME280_pressure;Samples;Min_cycle;Max_cycle;Signal;HPM_P1;HPM_P2
2023/01/23 00:00:24;;;;;;;;;;;;;;;;;;1039337;28;2283;-54
2023/01/23 00:01:19;;;;;;;;;;;;;;;;;;1038678;28;4066;-53
2023/01/23 00:01:49;;;;;;;;;;;;;;;;;;1038314;28;4011;-51
2023/01/23 00:02:20;;;;;;;;;;;;;;;;;;1039918;28;2197;-53
2023/01/23 00:02:50;;;;;;;;;;;;;;;;;;1038561;28;3956;-49
2023/01/23 00:03:20;;;;;;;;;;;;;;;;;;1039357;28;2658;-51
2023/01/23 00:03:54;;;;;;;;;;;;;;;;;;1038686;28;4177;-49
2023/01/23 00:04:24;;;;;;;;;;;;;;;;;;1040072;28;3155;-52
2023/01/23 00:04:54;;;;;;;;;;;;;;;;;;1039113;28;4099;-51
2023/01/23 00:05:25;;;;;;;;;;;;;;;;;;1038035;28;2879;-49
2023/01/23 00:06:03;;;;;;;;;;;;;;;;;;1038278;28;3931;-52
2023/01/23 00:06:33;;;;;;;;;;;;;;;;;;1039254;28;2838;-53
2023/01/23 00:07:04;;;;;;;;;;;;;;;;;;1037517;28;4282;-50
2023/01/23 00:07:41;;;;;;;;;;;;;;;;;;1038174;28;3937;-54
2023/01/23 00:08:11;;;;;;;;;;;;;;;;;;1038527;28;2841;-52
2023/01/23 00:08:42;;;;;;;;;;;;;;;;;;1039931;28;3958;-54
2023/01/23 00:09:13;;;;;;;;;;;;;;;;;;1039058;28;2842;-54
2023/01/23 00:09:43;;;;;;;;;;;;;;;;;;1039723;28;3977;-50
2023/01/23 00:10:13;;;;;;;;;;;;;;;;;;1039926;28;1833;-51
2023/01/23 00:10:44;;;;;;;;;;;;;;;;;;1037689;28;4037;-51
2023/01/23 00:11:15;;;;;;;;;;;;;;;;;;1038995;28;2141;-49
2023/01/23 00:11:46;;;;;;;;;;;;;;;;;;1038472;28;3979;-52
2023/01/23 00:12:16;;;;;;;;;;;;;;;;;;1038898;28;1659;-51
2023/01/23 00:12:48;;;;;;;;;;;;;;;;;;1036850;28;3970;-52
2023/01/23 00:13:19;;;;;;;;;;;;;;;;;;1038861;28;2507;-52
2023/01/23 00:13:50;;;;;;;;;;;;;;;;;;1038200;28;4056;-50
2023/01/23 00:14:20;;;;;;;;;;;;;;;;;;1038731;28;2017;-50
2023/01/23 00:14:50;;;;;;;;;;;;;;;;;;1034542;28;4050;-50
2023/01/23 00:15:21;;;;;;;;;;;;;;;;;;1035119;28;2578;-50
2023/01/23 00:15:51;;;;;;;;;;;;;;;;;;1033990;28;4308;-56
2023/01/23 00:16:22;;;;;;;;;;;;;;;;;;1034234;28;1879;-54
2023/01/23 00:16:53;;;;;;;;;;;;;;;;;;1035304;28;4052;-55
2023/01/23 00:17:25;;;;;;;;;;;;;;;;;;1034342;28;1836;-53
2023/01/23 00:17:57;;;;;;;;;;;;;;;;;;1034003;28;3887;-52
2023/01/23 00:18:27;;;;;;;;;;;;;;;;;;1034607;28;2159;-51
2023/01/23 00:18:57;;;;;;;;;;;;;;;;;;1039546;28;3923;-50
2023/01/23 00:19:27;;;;;;;;;;;;;;;;;;1039533;28;2712;-52
2023/01/23 00:19:58;;;;;;;;;;;;;;;;;;1037828;28;4059;-51
2023/01/23 00:20:45;;;;;;;;;;;;;;;;;;1037500;28;2166;-52
2023/01/23 00:21:23;;;;;;;;;;;;;;;;;;1038431;28;3940;-53
2023/01/23 00:21:54;;;;;;;;;;;;;;;;;;1039230;28;4785;-53
2023/01/23 00:22:24;;;;;;;;;;;;;;;;;;1039375;28;2554;-52
2023/01/23 00:22:54;;;;;;;;;;;;;;;;;;1038622;28;3809;-51
2023/01/23 00:23:24;;;;;;;;;;;;;;;;;;1039246;28;2040;-53
2023/01/23 00:23:56;;;;;;;;;;;;;;;;;;1037875;28;3961;-49
2023/01/23 00:24:26;;;;;;;;;;;;;;;;;;1038602;28;2004;-52
2023/01/23 00:24:57;;;;;;;;;;;;;;;;;;1038177;28;3953;-50
2023/01/23 00:25:27;;;;;;;;;;;;;;;;;;1039383;28;3071;-52
2023/01/23 00:26:01;;;;;;;;;;;;;;;;;;1034349;28;3954;-53
2023/01/23 00:26:32;;;;;;;;;;;;;;;;;;1038003;28;1841;-52
2023/01/23 00:27:02;;;;;;;;;;;;;;;;;;1035212;28;3928;-51
2023/01/23 00:27:32;;;;;;;;;;;;;;;;;;1040584;28;2026;-53
2023/01/23 00:28:03;;;;;;;;;;;;;;;;;;1041173;28;3911;-50
2023/01/23 00:28:33;;;;;;;;;;;;;;;;;;1039177;28;2672;-51
2023/01/23 00:29:04;;;;;;;;;;;;;;;;;;1039301;28;3881;-53
2023/01/23 00:29:34;;;;;;;;;;;;;;;;;;1038513;28;2253;-54
2023/01/23 00:30:05;;;;;;;;;;;;;;;;;;1038434;28;3890;-50
2023/01/23 00:30:35;;;;;;;;;;;;;;;;;;1039453;28;2253;-52
2023/01/23 00:31:06;;;;;;;;;;;;;;;;;;1039651;28;3699;-52
2023/01/23 00:31:37;;;;;;;;;;;;;;;;;;1037847;28;4448;-50
2023/01/23 00:32:08;;;;;;;;;;;;;;;;;;1039397;28;2970;-53
2023/01/23 00:32:38;;;;;;;;;;;;;;;;;;1040421;28;3964;-52
2023/01/23 00:33:09;;;;;;;;;;;;;;;;;;1038687;28;3106;-53
2023/01/23 00:33:40;;;;;;;;;;;;;;;;;;1039804;28;4068;-52
2023/01/23 00:34:11;;;;;;;;;;;;;;;;;;1038478;28;2863;-51
2023/01/23 00:34:42;;;;;;;;;;;;;;;;;;1037822;28;3946;-51
2023/01/23 00:35:12;;;;;;;;;;;;;;;;;;1038044;28;2888;-53
2023/01/23 00:35:42;;;;;;;;;;;;;;;;;;1037580;28;4114;-53
2023/01/23 00:36:13;;;;;;;;;;;;;;;;;;1039758;28;1598;-57
2023/01/23 00:36:44;;;;;;;;;;;;;;;;;;1038782;28;4111;-51
2023/01/23 00:37:15;;;;;;;;;;;;;;;;;;1038346;28;2934;-57
2023/01/23 00:37:45;;;;;;;;;;;;;;;;;;1039053;28;4081;-53
2023/01/23 00:38:16;;;;;;;;;;;;;;;;;;1040597;28;2980;-52
2023/01/23 00:38:46;;;;;;;;;;;;;;;;;;1038972;28;3875;-51
2023/01/23 00:39:18;;;;;;;;;;;;;;;;;;1040124;28;1676;-52
2023/01/23 00:39:49;;;;;;;;;;;;;;;;;;1038587;28;3899;-54
2023/01/23 00:40:20;;;;;;;;;;;;;;;;;;1039700;28;2294;-54
2023/01/23 00:40:50;;;;;;;;;;;;;;;;;;1039274;28;3770;-50
2023/01/23 00:41:20;;;;;;;;;;;;;;;;;;1040808;28;2335;-50
2023/01/23 00:41:50;;;;;;;;;;;;;;;;;;1040162;28;3970;-52
2023/01/23 00:42:21;;;;;;;;;;;;;;;;;;1035653;28;2181;-55
2023/01/23 00:42:52;;;;;;;;;;;;;;;;;;1034434;28;4118;-52
2023/01/23 00:43:23;;;;;;;;;;;;;;;;;;1035299;28;2757;-52
2023/01/23 00:43:53;;;;;;;;;;;;;;;;;;1034257;28;4064;-52
2023/01/23 00:44:23;;;;;;;;;;;;;;;;;;1041350;28;1692;-53
2023/01/23 00:44:54;;;;;;;;;;;;;;;;;;1038953;28;4415;-52
2023/01/23 00:45:24;;;;;;;;;;;;;;;;;;1035459;28;2127;-51
2023/01/23 00:45:54;;;;;;;;;;;;;;;;;;1033688;28;4262;-51
2023/01/23 00:46:24;;;;;;;;;;;;;;;;;;1035129;28;3373;-51
2023/01/23 00:46:55;;;;;;;;;;;;;;;;;;1034966;28;4090;-51
2023/01/23 00:47:25;;;;;;;;;;;;;;;;;;1039251;28;1914;-56
2023/01/23 00:47:55;;;;;;;;;;;;;;;;;;1039506;28;4057;-53
2023/01/23 00:48:26;;;;;;;;;;;;;;;;;;1039147;28;2393;-49
2023/01/23 00:48:56;;;;;;;;;;;;;;;;;;1039844;28;4006;-54
2023/01/23 00:49:26;;;;;;;;;;;;;;;;;;1039015;28;2052;-52
2023/01/23 00:50:03;;;;;;;;;;;;;;;;;;1039135;28;3897;-50
2023/01/23 00:50:33;;;;;;;;;;;;;;;;;;1038545;28;2774;-53
2023/01/23 00:51:04;;;;;;;;;;;;;;;;;;1035829;28;4344;-49
2023/01/23 00:51:34;;;;;;;;;;;;;;;;;;1036381;28;2230;-51
2023/01/23 00:52:04;;;;;;;;;;;;;;;;;;1034872;28;3742;-52
2023/01/23 00:52:34;;;;;;;;;;;;;;;;;;1035381;28;2797;-49
2023/01/23 00:53:05;;;;;;;;;;;;;;;;;;1039658;28;3976;-52
2023/01/23 00:53:35;;;;;;;;;;;;;;;;;;1039753;28;2398;-54
2023/01/23 00:54:05;;;;;;;;;;;;;;;;;;1040120;28;3819;-50
2023/01/23 00:54:37;;;;;;;;;;;;;;;;;;1038141;28;4514;-52
2023/01/23 00:55:07;;;;;;;;;;;;;;;;;;1040265;28;2782;-52
2023/01/23 00:55:38;;;;;;;;;;;;;;;;;;1037949;28;4425;-50
2023/01/23 00:56:08;;;;;;;;;;;;;;;;;;1040022;28;2857;-54
2023/01/23 00:56:38;;;;;;;;;;;;;;;;;;1037019;28;3788;-57
2023/01/23 00:57:09;;;;;;;;;;;;;;;;;;1040197;28;2165;-51
2023/01/23 00:57:39;;;;;;;;;;;;;;;;;;1038737;28;4058;-53
2023/01/23 00:58:09;;;;;;;;;;;;;;;;;;1037636;28;2794;-51
2023/01/23 00:58:40;;;;;;;;;;;;;;;;;;1033690;28;3878;-53
2023/01/23 00:59:11;;;;;;;;;;;;;;;;;;1038056;28;3456;-52
2023/01/23 00:59:41;;;;;;;;;;;;;;;;;;1035493;28;3878;-57
2023/01/23 01:00:11;;;;;;;;;;;;;;;;;;1040187;28;2485;-53
2023/01/23 01:00:42;;;;;;;;;;;;;;;;;;1038717;28;4099;-54
2023/01/23 01:01:13;;;;;;;;;;;;;;;;;;1039086;28;2498;-53
2023/01/23 01:01:43;;;;;;;;;;;;;;;;;;1038995;28;4145;-49
2023/01/23 01:02:14;;;;;;;;;;;;;;;;;;1040951;28;2482;-54
2023/01/23 01:02:44;;;;;;;;;;;;;;;;;;1037193;28;3968;-56
2023/01/23 01:03:14;;;;;;;;;;;;;;;;;;1040616;28;2981;-52
2023/01/23 01:03:45;;;;;;;;;;;;;;;;;;1038483;28;3870;-53
2023/01/23 01:04:15;;;;;;;;;;;;;;;;;;1038371;28;3078;-49
2023/01/23 01:04:45;;;;;;;;;;;;;;;;;;1036044;28;3948;-54
2023/01/23 01:05:17;;;;;;;;;;;;;;;;;;1032561;28;2925;-50
2023/01/23 01:05:47;;;;;;;;;;;;;;;;;;1032894;28;3855;-51
2023/01/23 01:06:17;;;;;;;;;;;;;;;;;;1033174;28;2205;-53
2023/01/23 01:06:48;;;;;;;;;;;;;;;;;;1037288;28;3945;-52
2023/01/23 01:07:18;;;;;;;;;;;;;;;;;;1035651;28;3246;-55
2023/01/23 01:07:48;;;;;;;;;;;;;;;;;;1035386;28;4108;-56
2023/01/23 01:08:18;;;;;;;;;;;;;;;;;;1035852;28;2415;-49
2023/01/23 01:08:49;;;;;;;;;;;;;;;;;;1035967;28;3788;-55
2023/01/23 01:09:19;;;;;;;;;;;;;;;;;;1036743;28;3000;-49
2023/01/23 01:09:49;;;;;;;;;;;;;;;;;;1034777;28;3981;-51
2023/01/23 01:10:19;;;;;;;;;;;;;;;;;;1035972;28;2589;-54
2023/01/23 01:10:50;;;;;;;;;;;;;;;;;;1036246;28;4078;-52
2023/01/23 01:11:20;;;;;;;;;;;;;;;;;;1035659;28;3026;-50
2023/01/23 01:11:50;;;;;;;;;;;;;;;;;;1034965;28;4119;-54
2023/01/23 01:12:21;;;;;;;;;;;;;;;;;;1042840;28;2032;-55
2023/01/23 01:12:51;;;;;;;;;;;;;;;;;;1035731;28;3877;-51
2023/01/23 01:13:22;;;;;;;;;;;;;;;;;;1038245;28;1837;-56
2023/01/23 01:13:52;;;;;;;;;;;;;;;;;;1035024;28;3862;-54
2023/01/23 01:14:23;;;;;;;;;;;;;;;;;;1035557;28;1998;-48
2023/01/23 01:14:53;;;;;;;;;;;;;;;;;;1038272;28;4360;-55
2023/01/23 01:15:23;;;;;;;;;;;;;;;;;;1039162;28;2657;-52
2023/01/23 01:15:54;;;;;;;;;;;;;;;;;;1040337;28;3796;-52
2023/01/23 01:16:24;;;;;;;;;;;;;;;;;;1042056;28;2115;-54
2023/01/23 01:16:54;;;;;;;;;;;;;;;;;;1039033;28;4054;-54
2023/01/23 01:17:25;;;;;;;;;;;;;;;;;;1039385;28;1926;-55
2023/01/23 01:17:56;;;;;;;;;;;;;;;;;;1037248;28;4103;-49
2023/01/23 01:18:26;;;;;;;;;;;;;;;;;;1039963;28;2772;-54
2023/01/23 01:18:56;;;;;;;;;;;;;;;;;;1039077;28;4221;-52
2023/01/23 01:19:28;;;;;;;;;;;;;;;;;;1038478;28;1758;-54
2023/01/23 01:19:58;;;;;;;;;;;;;;;;;;1037432;28;3870;-53
2023/01/23 01:20:42;;;;;;;;;;;;;;;;;;1037272;28;1839;-52
2023/01/23 01:21:19;;;;;;;;;;;;;;;;;;1033584;28;4106;-50
2023/01/23 01:21:49;;;;;;;;;;;;;;;;;;1036107;28;4029;-53
2023/01/23 01:22:19;;;;;;;;;;;;;;;;;;1035268;28;2856;-53
2023/01/23 01:22:50;;;;;;;;;;;;;;;;;;1034846;28;3945;-54
2023/01/23 01:23:20;;;;;;;;;;;;;;;;;;1035931;28;1815;-53
2023/01/23 01:23:50;;;;;;;;;;;;;;;;;;1035455;28;5382;-54
2023/01/23 01:24:21;;;;;;;;;;;;;;;;;;1036852;28;1938;-53
2023/01/23 01:24:51;;;;;;;;;;;;;;;;;;1035601;28;3837;-52
2023/01/23 01:25:21;;;;;;;;;;;;;;;;;;1036409;28;2635;-54
2023/01/23 01:25:51;;;;;;;;;;;;;;;;;;1034631;28;4242;-53
2023/01/23 01:26:22;;;;;;;;;;;;;;;;;;1036525;28;2503;-54
2023/01/23 01:26:52;;;;;;;;;;;;;;;;;;1034839;28;4404;-52
2023/01/23 01:27:22;;;;;;;;;;;;;;;;;;1036166;28;2286;-51
2023/01/23 01:27:54;;;;;;;;;;;;;;;;;;1034157;28;4599;-51
2023/01/23 01:28:27;;;;;;;;;;;;;;;;;;1037211;28;2508;-51
2023/01/23 01:28:57;;;;;;;;;;;;;;;;;;1036064;28;3775;-49
2023/01/23 01:29:27;;;;;;;;;;;;;;;;;;1035016;28;2216;-49
2023/01/23 01:29:57;;;;;;;;;;;;;;;;;;1036057;28;4020;-53
2023/01/23 01:30:28;;;;;;;;;;;;;;;;;;1036138;28;2174;-51
2023/01/23 01:31:02;;;;;;;;;;;;;;;;;;1034234;28;3872;-51
2023/01/23 01:31:32;;;;;;;;;;;;;;;;;;1037393;28;2462;-50
2023/01/23 01:32:03;;;;;;;;;;;;;;;;;;1035121;28;4283;-50
2023/01/23 01:32:37;;;;;;;;;;;;;;;;;;1034690;28;2412;-54
2023/01/23 01:33:09;;;;;;;;;;;;;;;;;;1034667;28;3820;-55
2023/01/23 01:33:47;;;;;;;;;;;;;;;;;;1035414;28;3862;-52
2023/01/23 01:34:24;;;;;;;;;;;;;;;;;;1035751;28;3123;-52
2023/01/23 01:34:54;;;;;;;;;;;;;;;;;;1036327;28;3940;-51
2023/01/23 01:35:24;;;;;;;;;;;;;;;;;;1034958;28;2550;-55
2023/01/23 01:35:55;;;;;;;;;;;;;;;;;;1034991;28;3772;-55
2023/01/23 01:36:26;;;;;;;;;;;;;;;;;;1035934;28;2414;-52
2023/01/23 01:36:56;;;;;;;;;;;;;;;;;;1034562;28;3932;-53
2023/01/23 01:37:27;;;;;;;;;;;;;;;;;;1034131;28;2967;-53
2023/01/23 01:37:57;;;;;;;;;;;;;;;;;;1035602;28;3921;-54
2023/01/23 01:38:27;;;;;;;;;;;;;;;;;;1033979;28;2170;-52
2023/01/23 01:38:57;;;;;;;;;;;;;;;;;;1035515;28;4433;-52
2023/01/23 01:39:28;;;;;;;;;;;;;;;;;;1034930;28;2491;-52
2023/01/23 01:39:58;;;;;;;;;;;;;;;;;;1035153;28;3963;-52
2023/01/23 01:40:31;;;;;;;;;;;;;;;;;;1036486;28;2612;-53
2023/01/23 01:41:01;;;;;;;;;;;;;;;;;;1033560;28;3887;-55
2023/01/23 01:41:32;;;;;;;;;;;;;;;;;;1037107;28;2127;-51
2023/01/23 01:42:02;;;;;;;;;;;;;;;;;;1033733;28;3784;-51
2023/01/23 01:42:39;;;;;;;;;;;;;;;;;;1035843;28;2986;-53
2023/01/23 01:43:16;;;;;;;;;;;;;;;;;;1036057;28;3992;-50
2023/01/23 01:43:47;;;;;;;;;;;;;;;;;;1035351;28;3882;-54
2023/01/23 01:44:18;;;;;;;;;;;;;;;;;;1036589;28;3098;-51
2023/01/23 01:45:00;;;;;;;;;;;;;;;;;;1034031;28;3952;-49
2023/01/23 01:45:48;;;;;;;;;;;;;;;;;;1035134;28;2577;-55
2023/01/23 01:46:20;;;;;;;;;;;;;;;;;;1035004;28;4208;-53
2023/01/23 01:46:51;;;;;;;;;;;;;;;;;;1035595;28;4020;-49
2023/01/23 01:47:21;;;;;;;;;;;;;;;;;;1034431;28;2234;-51
2023/01/23 01:47:51;;;;;;;;;;;;;;;;;;1035799;28;3970;-54
2023/01/23 01:48:24;;;;;;;;;;;;;;;;;;1036960;28;1964;-48
2023/01/23 01:49:03;;;;;;;;;;;;;;;;;;1034606;28;3864;-54
2023/01/23 01:49:34;;;;;;;;;;;;;;;;;;1035151;28;2215;-51
2023/01/23 01:50:12;;;;;;;;;;;;;;;;;;1035552;28;4043;-55
2023/01/23 01:50:42;;;;;;;;;;;;;;;;;;1035770;28;3920;-51
2023/01/23 01:51:17;;;;;;;;;;;;;;;;;;1034524;28;1759;-53
2023/01/23 01:51:50;;;;;;;;;;;;;;;;;;1035440;28;3973;-52
2023/01/23 01:52:20;;;;;;;;;;;;;;;;;;1035094;28;2955;-49
2023/01/23 01:52:51;;;;;;;;;;;;;;;;;;1037103;28;3909;-53
2023/01/23 01:53:22;;;;;;;;;;;;;;;;;;1035934;28;1810;-53
2023/01/23 01:53:59;;;;;;;;;;;;;;;;;;1037034;28;3843;-55
2023/01/23 01:54:31;;;;;;;;;;;;;;;;;;1035938;28;3178;-52
2023/01/23 01:55:03;;;;;;;;;;;;;;;;;;1035646;28;3821;-54
2023/01/23 01:55:33;;;;;;;;;;;;;;;;;;1035750;28;2080;-53
2023/01/23 01:56:04;;;;;;;;;;;;;;;;;;1035292;28;3945;-54
2023/01/23 01:56:38;;;;;;;;;;;;;;;;;;1035607;28;3080;-52
2023/01/23 01:57:20;;;;;;;;;;;;;;;;;;1036679;28;3693;-55
2023/01/23 01:57:53;;;;;;;;;;;;;;;;;;1035357;28;3988;-50
2023/01/23 01:58:23;;;;;;;;;;;;;;;;;;1036294;28;2892;-51
2023/01/23 01:58:54;;;;;;;;;;;;;;;;;;1036254;28;3958;-51
2023/01/23 01:59:26;;;;;;;;;;;;;;;;;;1035298;28;2058;-51
2023/01/23 01:59:59;;;;;;;;;;;;;;;;;;1034437;28;3741;-51
2023/01/23 02:00:29;;;;;;;;;;;;;;;;;;1035332;28;2950;-55
2023/01/23 02:00:59;;;;;;;;;;;;;;;;;;1035621;28;3759;-54
2023/01/23 02:01:30;;;;;;;;;;;;;;;;;;1039735;28;2528;-50
2023/01/23 02:02:08;;;;;;;;;;;;;;;;;;1038111;28;4365;-53
2023/01/23 02:02:43;;;;;;;;;;;;;;;;;;1035870;28;4024;-51
2023/01/23 02:03:15;;;;;;;;;;;;;;;;;;1038415;28;2967;-51
2023/01/23 02:03:46;;;;;;;;;;;;;;;;;;1038537;28;3770;-51
2023/01/23 02:04:16;;;;;;;;;;;;;;;;;;1038109;28;2295;-50
2023/01/23 02:04:48;;;;;;;;;;;;;;;;;;1034783;28;4371;-48
2023/01/23 02:05:24;;;;;;;;;;;;;;;;;;1034553;28;3070;-51
2023/01/23 02:05:54;;;;;;;;;;;;;;;;;;1035726;28;4417;-54
2023/01/23 02:06:25;;;;;;;;;;;;;;;;;;1035993;28;3029;-52
2023/01/23 02:06:55;;;;;;;;;;;;;;;;;;1032723;28;3780;-50
2023/01/23 02:07:32;;;;;;;;;;;;;;;;;;1033354;28;2817;-50
2023/01/23 02:08:12;;;;;;;;;;;;;;;;;;1034134;28;3883;-51
2023/01/23 02:09:11;;;;;;;;;;;;;;;;;;1035051;28;4546;-54
2023/01/23 02:09:42;;;;;;;;;;;;;;;;;;1036193;28;4430;-55
2023/01/23 02:10:13;;;;;;;;;;;;;;;;;;1037494;28;2924;-49
2023/01/23 02:10:43;;;;;;;;;;;;;;;;;;1034260;28;3929;-54
2023/01/23 02:11:15;;;;;;;;;;;;;;;;;;1036181;28;1691;-50
2023/01/23 02:11:46;;;;;;;;;;;;;;;;;;1036280;28;3891;-54
2023/01/23 02:12:16;;;;;;;;;;;;;;;;;;1035125;28;1604;-53
2023/01/23 02:12:47;;;;;;;;;;;;;;;;;;1034593;28;4084;-51
2023/01/23 02:13:31;;;;;;;;;;;;;;;;;;1035732;28;1614;-52
2023/01/23 02:14:01;;;;;;;;;;;;;;;;;;1033647;28;3856;-55
2023/01/23 02:14:31;;;;;;;;;;;;;;;;;;1037259;28;2158;-53
2023/01/23 02:15:03;;;;;;;;;;;;;;;;;;1035108;28;4305;-53
2023/01/23 02:15:33;;;;;;;;;;;;;;;;;;1036897;28;1958;-53
2023/01/23 02:16:05;;;;;;;;;;;;;;;;;;1036896;28;4143;-49
2023/01/23 02:16:39;;;;;;;;;;;;;;;;;;1036362;28;1695;-51
2023/01/23 02:17:09;;;;;;;;;;;;;;;;;;1035727;28;3812;-50
2023/01/23 02:17:40;;;;;;;;;;;;;;;;;;1036490;28;4048;-50
2023/01/23 02:18:10;;;;;;;;;;;;;;;;;;1035801;28;2989;-51
2023/01/23 02:18:43;;;;;;;;;;;;;;;;;;1035246;28;4048;-49
2023/01/23 02:19:32;;;;;;;;;;;;;;;;;;1035744;28;1713;-53
2023/01/23 02:20:22;;;;;;;;;;;;;;;;;;1036595;28;3945;-55
2023/01/23 02:21:00;;;;;;;;;;;;;;;;;;1033445;28;4045;-51
2023/01/23 02:21:38;;;;;;;;;;;;;;;;;;1035248;28;1643;-53
2023/01/23 02:22:20;;;;;;;;;;;;;;;;;;1034863;28;3947;-53
2023/01/23 02:22:57;;;;;;;;;;;;;;;;;;1033976;28;3887;-49
2023/01/23 02:23:45;;;;;;;;;;;;;;;;;;1034991;28;2107;-50
2023/01/23 02:24:21;;;;;;;;;;;;;;;;;;1035976;28;3964;-53
2023/01/23 02:24:57;;;;;;;;;;;;;;;;;;1030259;28;3962;-53
2023/01/23 02:25:39;;;;;;;;;;;;;;;;;;1033437;28;3147;-55
2023/01/23 02:26:15;;;;;;;;;;;;;;;;;;1033560;28;3756;-55
2023/01/23 02:26:45;;;;;;;;;;;;;;;;;;1037328;28;4416;-53
2023/01/23 02:27:16;;;;;;;;;;;;;;;;;;1035218;28;2904;-52
2023/01/23 02:27:46;;;;;;;;;;;;;;;;;;1035924;28;4401;-53
2023/01/23 02:28:16;;;;;;;;;;;;;;;;;;1034432;28;2992;-52
2023/01/23 02:28:47;;;;;;;;;;;;;;;;;;1037063;28;4034;-56
2023/01/23 02:29:19;;;;;;;;;;;;;;;;;;1035988;28;3046;-52
2023/01/23 02:29:51;;;;;;;;;;;;;;;;;;1035861;28;3786;-52
2023/01/23 02:30:22;;;;;;;;;;;;;;;;;;1036476;28;2225;-51
2023/01/23 02:30:53;;;;;;;;;;;;;;;;;;1035399;28;3842;-50
2023/01/23 02:31:23;;;;;;;;;;;;;;;;;;1034893;28;2885;-51
2023/01/23 02:31:55;;;;;;;;;;;;;;;;;;1035367;28;4059;-51
2023/01/23 02:32:25;;;;;;;;;;;;;;;;;;1035829;28;2640;-55
2023/01/23 02:33:10;;;;;;;;;;;;;;;;;;1036638;28;3779;-51
2023/01/23 02:33:45;;;;;;;;;;;;;;;;;;1036194;28;3867;-52
2023/01/23 02:34:16;;;;;;;;;;;;;;;;;;1036139;28;1725;-52
2023/01/23 02:34:53;;;;;;;;;;;;;;;;;;1035885;28;3870;-50
2023/01/23 02:35:27;;;;;;;;;;;;;;;;;;1034620;28;2372;-54
2023/01/23 02:35:58;;;;;;;;;;;;;;;;;;1035058;28;4252;-51
2023/01/23 02:36:30;;;;;;;;;;;;;;;;;;1035934;28;2857;-53
2023/01/23 02:37:00;;;;;;;;;;;;;;;;;;1036090;28;4323;-52
2023/01/23 02:37:33;;;;;;;;;;;;;;;;;;1038012;28;1712;-50
2023/01/23 02:38:04;;;;;;;;;;;;;;;;;;1034309;28;3974;-54
2023/01/23 02:38:36;;;;;;;;;;;;;;;;;;1035051;28;2878;-52
2023/01/23 02:39:08;;;;;;;;;;;;;;;;;;1036403;28;3682;-52
2023/01/23 02:39:39;;;;;;;;;;;;;;;;;;1035423;28;4015;-53
2023/01/23 02:40:09;;;;;;;;;;;;;;;;;;1036615;28;2951;-54
2023/01/23 02:40:41;;;;;;;;;;;;;;;;;;1034126;28;3959;-50
2023/01/23 02:41:12;;;;;;;;;;;;;;;;;;1035426;28;3212;-49
2023/01/23 02:41:46;;;;;;;;;;;;;;;;;;1035049;28;3940;-52
2023/01/23 02:42:17;;;;;;;;;;;;;;;;;;1038111;28;1579;-50
2023/01/23 02:42:48;;;;;;;;;;;;;;;;;;1036470;28;4819;-54
2023/01/23 02:43:20;;;;;;;;;;;;;;;;;;1036162;28;2008;-52
2023/01/23 02:43:51;;;;;;;;;;;;;;;;;;1038423;28;4418;-53
2023/01/23 02:44:26;;;;;;;;;;;;;;;;;;1041461;28;1701;-51
2023/01/23 02:44:56;;;;;;;;;;;;;;;;;;1040799;28;3959;-53
2023/01/23 02:45:27;;;;;;;;;;;;;;;;;;1040672;28;2077;-56
2023/01/23 02:46:00;;;;;;;;;;;;;;;;;;1035860;28;4288;-50
2023/01/23 02:46:30;;;;;;;;;;;;;;;;;;1034649;28;2109;-51
2023/01/23 02:47:02;;;;;;;;;;;;;;;;;;1035333;28;4103;-52
2023/01/23 02:47:33;;;;;;;;;;;;;;;;;;1036533;28;2958;-51
2023/01/23 02:48:04;;;;;;;;;;;;;;;;;;1034955;28;4441;-52
2023/01/23 02:48:36;;;;;;;;;;;;;;;;;;1034804;28;1661;-54
2023/01/23 02:49:07;;;;;;;;;;;;;;;;;;1034866;28;3824;-54
2023/01/23 02:49:38;;;;;;;;;;;;;;;;;;1036870;28;4419;-52
2023/01/23 02:50:08;;;;;;;;;;;;;;;;;;1037598;28;3007;-53
2023/01/23 02:50:38;;;;;;;;;;;;;;;;;;1035367;28;3993;-52
2023/01/23 02:51:09;;;;;;;;;;;;;;;;;;1035289;28;3101;-50
2023/01/23 02:51:39;;;;;;;;;;;;;;;;;;1035939;28;5040;-54
2023/01/23 02:52:09;;;;;;;;;;;;;;;;;;1036535;28;2922;-50
2023/01/23 02:52:40;;;;;;;;;;;;;;;;;;1034695;28;3994;-51
2023/01/23 02:53:10;;;;;;;;;;;;;;;;;;1034990;28;2987;-53
2023/01/23 02:53:41;;;;;;;;;;;;;;;;;;1034640;28;3982;-50
2023/01/23 02:54:11;;;;;;;;;;;;;;;;;;1037223;28;2800;-49
2023/01/23 02:54:41;;;;;;;;;;;;;;;;;;1033747;28;3889;-52
2023/01/23 02:55:12;;;;;;;;;;;;;;;;;;1035935;28;2697;-50
2023/01/23 02:55:43;;;;;;;;;;;;;;;;;;1036307;28;3941;-54
2023/01/23 02:56:14;;;;;;;;;;;;;;;;;;1034344;28;1869;-50
2023/01/23 02:56:44;;;;;;;;;;;;;;;;;;1035730;28;4096;-50
2023/01/23 02:57:15;;;;;;;;;;;;;;;;;;1037868;28;3022;-52
2023/01/23 02:57:45;;;;;;;;;;;;;;;;;;1035464;28;5008;-52
2023/01/23 03:00:42;;;;;;;;;;;;;;;;;;1034806;28;4419;-50
2023/01/23 03:01:12;;;;;;;;;;;;;;;;;;1035942;28;1997;-55
2023/01/23 03:01:42;;;;;;;;;;;;;;;;;;1035662;28;4276;-48
2023/01/23 03:02:14;;;;;;;;;;;;;;;;;;1035283;28;2980;-52
2023/01/23 03:02:49;;;;;;;;;;;;;;;;;;1035473;28;3981;-51
2023/01/23 03:03:19;;;;;;;;;;;;;;;;;;1037005;28;2137;-50
2023/01/23 03:03:52;;;;;;;;;;;;;;;;;;1040267;28;4008;-55
2023/01/23 03:04:22;;;;;;;;;;;;;;;;;;1042187;28;1769;-52
2023/01/23 03:04:53;;;;;;;;;;;;;;;;;;1039345;28;4408;-55
2023/01/23 03:05:23;;;;;;;;;;;;;;;;;;1042149;28;1986;-52
2023/01/23 03:05:54;;;;;;;;;;;;;;;;;;1036948;28;4140;-52
2023/01/23 03:06:24;;;;;;;;;;;;;;;;;;1037123;28;2097;-50
2023/01/23 03:06:55;;;;;;;;;;;;;;;;;;1034849;28;3803;-51
2023/01/23 03:07:25;;;;;;;;;;;;;;;;;;1036334;28;2118;-51
2023/01/23 03:07:57;;;;;;;;;;;;;;;;;;1034140;28;3788;-52
2023/01/23 03:08:32;;;;;;;;;;;;;;;;;;1035478;28;2141;-51
2023/01/23 03:09:04;;;;;;;;;;;;;;;;;;1033849;28;3790;-52
2023/01/23 03:09:34;;;;;;;;;;;;;;;;;;1036452;28;2029;-52
2023/01/23 03:10:06;;;;;;;;;;;;;;;;;;1035798;28;3975;-54
2023/01/23 03:10:36;;;;;;;;;;;;;;;;;;1035372;28;4068;-49
2023/01/23 03:11:07;;;;;;;;;;;;;;;;;;1035360;28;3022;-53
2023/01/23 03:11:38;;;;;;;;;;;;;;;;;;1035202;28;4070;-51
2023/01/23 03:12:09;;;;;;;;;;;;;;;;;;1036346;28;3132;-53
2023/01/23 03:12:42;;;;;;;;;;;;;;;;;;1033955;28;3817;-51
2023/01/23 03:13:12;;;;;;;;;;;;;;;;;;1037451;28;2122;-54
2023/01/23 03:13:43;;;;;;;;;;;;;;;;;;1034496;28;3924;-56
2023/01/23 03:14:16;;;;;;;;;;;;;;;;;;1036472;28;2867;-53
2023/01/23 03:14:47;;;;;;;;;;;;;;;;;;1036639;28;4563;-53
2023/01/23 03:15:17;;;;;;;;;;;;;;;;;;1035755;28;2263;-54
2023/01/23 03:15:49;;;;;;;;;;;;;;;;;;1037455;28;3960;-50
2023/01/23 03:16:19;;;;;;;;;;;;;;;;;;1035226;28;2077;-52
2023/01/23 03:16:52;;;;;;;;;;;;;;;;;;1034905;28;4475;-52
2023/01/23 03:17:22;;;;;;;;;;;;;;;;;;1036209;28;2348;-53
2023/01/23 03:17:53;;;;;;;;;;;;;;;;;;1036635;28;4111;-54
2023/01/23 03:18:26;;;;;;;;;;;;;;;;;;1035092;28;2197;-55
2023/01/23 03:18:58;;;;;;;;;;;;;;;;;;1034366;28;3939;-53
2023/01/23 03:19:28;;;;;;;;;;;;;;;;;;1036112;28;2230;-49
2023/01/23 03:19:58;;;;;;;;;;;;;;;;;;1035144;28;3938;-52
2023/01/23 03:20:29;;;;;;;;;;;;;;;;;;1034795;28;1839;-53
2023/01/23 03:21:11;;;;;;;;;;;;;;;;;;1037050;28;4358;-53
2023/01/23 03:21:48;;;;;;;;;;;;;;;;;;1038146;28;3804;-53
2023/01/23 03:22:25;;;;;;;;;;;;;;;;;;1039325;28;1690;-52
2023/01/23 03:22:55;;;;;;;;;;;;;;;;;;1038615;28;3854;-52
2023/01/23 03:23:25;;;;;;;;;;;;;;;;;;1041504;28;2341;-50
2023/01/23 03:23:56;;;;;;;;;;;;;;;;;;1039453;28;4010;-51
2023/01/23 03:24:27;;;;;;;;;;;;;;;;;;1039240;28;2413;-57
2023/01/23 03:24:57;;;;;;;;;;;;;;;;;;1040435;28;3865;-52
2023/01/23 03:25:27;;;;;;;;;;;;;;;;;;1039926;28;2111;-51
2023/01/23 03:25:58;;;;;;;;;;;;;;;;;;1039959;28;4041;-50
2023/01/23 03:26:28;;;;;;;;;;;;;;;;;;1039443;28;2456;-55
2023/01/23 03:26:58;;;;;;;;;;;;;;;;;;1041032;28;4213;-48
2023/01/23 03:27:29;;;;;;;;;;;;;;;;;;1040164;28;1914;-53
2023/01/23 03:27:59;;;;;;;;;;;;;;;;;;1039847;28;4361;-49
2023/01/23 03:30:15;;;;;;;;;;;;;;;;;;1040964;28;3987;-52
2023/01/23 03:30:45;;;;;;;;;;;;;;;;;;1039022;28;3794;-47
2023/01/23 03:31:16;;;;;;;;;;;;;;;;;;1040192;28;1684;-48
2023/01/23 03:31:46;;;;;;;;;;;;;;;;;;1034510;28;4076;-52
2023/01/23 03:32:16;;;;;;;;;;;;;;;;;;1038682;28;1986;-51
2023/01/23 03:32:47;;;;;;;;;;;;;;;;;;1035673;28;4132;-52
2023/01/23 03:33:24;;;;;;;;;;;;;;;;;;1038076;28;2561;-55
2023/01/23 03:33:54;;;;;;;;;;;;;;;;;;1040241;28;4185;-51
2023/01/23 03:34:25;;;;;;;;;;;;;;;;;;1040285;28;2086;-54
2023/01/23 03:34:56;;;;;;;;;;;;;;;;;;1038964;28;4055;-51
2023/01/23 03:35:26;;;;;;;;;;;;;;;;;;1039061;28;1744;-48
2023/01/23 03:35:56;;;;;;;;;;;;;;;;;;1038848;28;3949;-54
2023/01/23 03:36:27;;;;;;;;;;;;;;;;;;1040039;28;1889;-53
2023/01/23 03:36:57;;;;;;;;;;;;;;;;;;1039490;28;3880;-52
2023/01/23 03:37:27;;;;;;;;;;;;;;;;;;1039740;28;2257;-51
2023/01/23 03:37:57;;;;;;;;;;;;;;;;;;1038121;28;3916;-48
2023/01/23 03:38:28;;;;;;;;;;;;;;;;;;1041085;28;1765;-48
2023/01/23 03:41:24;;;;;;;;;;;;;;;;;;1035321;28;2883;-50
2023/01/23 03:41:55;;;;;;;;;;;;;;;;;;1035763;28;4581;-50
2023/01/23 03:42:25;;;;;;;;;;;;;;;;;;1035950;28;2937;-53
2023/01/23 03:42:55;;;;;;;;;;;;;;;;;;1035791;28;4331;-49
2023/01/23 03:43:29;;;;;;;;;;;;;;;;;;1039945;28;2888;-49
2023/01/23 03:43:59;;;;;;;;;;;;;;;;;;1040541;28;3850;-54
2023/01/23 03:44:30;;;;;;;;;;;;;;;;;;1040978;28;2873;-53
2023/01/23 03:45:00;;;;;;;;;;;;;;;;;;1039919;28;3763;-52
2023/01/23 03:45:31;;;;;;;;;;;;;;;;;;1040391;28;2337;-53
2023/01/23 03:46:01;;;;;;;;;;;;;;;;;;1038597;28;3736;-53
2023/01/23 03:46:31;;;;;;;;;;;;;;;;;;1040559;28;3100;-52
2023/01/23 03:47:02;;;;;;;;;;;;;;;;;;1040121;28;3907;-53
2023/01/23 03:47:32;;;;;;;;;;;;;;;;;;1038806;28;2114;-49